sensor_id;sensor_type;location;lat;lon;timestamp;pressure;altitude;pressure_sealevel;temperature;humidity
66560;BME280;53413;49.878;8.142;2023-04-26T00:00:36;100155.66;;;1.27;100.00
66560;BME280;53413;49.878;8.142;2023-04-26T00:03:01;100162.50;;;1.27;100.00
66560;BME280;53413;49.878;8.142;2023-04-26T00:05:28;100158.22;;;1.24;100.00
66560;BME280;53413;49.878;8.142;2023-04-26T00:07:53;100161.66;;;1.23;100.00
66560;BME280;53413;49.878;8.142;2023-04-26T00:10:18;100163.34;;;1.21;100.00
66560;BME280;53413;49.878;8.142;2023-04-26T00:12:44;100166.81;;;1.18;100.00
66560;BME280;53413;49.878;8.142;2023-04-26T00:15:09;100161.66;;;1.21;100.00
66560;BME280;53413;49.878;8.142;2023-04-26T00:17:35;100163.38;;;1.22;100.00
66560;BME280;53413;49.878;8.142;2023-04-26T00:20:01;100162.50;;;1.20;100.00
66560;BME280;53413;49.878;8.142;2023-04-26T00:22:26;100161.66;;;1.21;100.00
66560;BME280;53413;49.878;8.142;2023-04-26T00:24:52;100169.41;;;1.20;100.00
66560;BME280;53413;49.878;8.142;2023-04-26T00:27:17;100165.94;;;1.16;100.00
66560;BME280;53413;49.878;8.142;2023-04-26T00:29:42;100176.25;;;1.10;100.00
66560;BME280;53413;49.878;8.142;2023-04-26T00:32:08;100166.75;;;1.03;100.00
66560;BME280;53413;49.878;8.142;2023-04-26T00:34:36;100167.59;;;1.00;100.00
66560;BME280;53413;49.878;8.142;2023-04-26T00:37:03;100166.75;;;0.97;100.00
66560;BME280;53413;49.878;8.142;2023-04-26T00:39:29;100165.00;;;0.92;100.00
66560;BME280;53413;49.878;8.142;2023-04-26T00:41:55;100170.19;;;0.96;100.00
66560;BME280;53413;49.878;8.142;2023-04-26T00:44:21;100169.31;;;0.97;100.00
66560;BME280;53413;49.878;8.142;2023-04-26T00:46:47;100167.59;;;0.96;100.00
66560;BME280;53413;49.878;8.142;2023-04-26T00:49:15;100168.44;;;0.95;100.00
66560;BME280;53413;49.878;8.142;2023-04-26T00:51:44;100177.03;;;0.87;100.00
66560;BME280;53413;49.878;8.142;2023-04-26T00:54:11;100169.28;;;0.83;100.00
66560;BME280;53413;49.878;8.142;2023-04-26T00:56:38;100169.25;;;0.81;100.00
66560;BME280;53413;49.878;8.142;2023-04-26T00:59:06;100167.53;;;0.85;100.00
66560;BME280;53413;49.878;8.142;2023-04-26T01:01:31;100174.44;;;0.86;100.00
66560;BME280;53413;49.878;8.142;2023-04-26T01:03:57;100169.28;;;0.87;100.00
66560;BME280;53413;49.878;8.142;2023-04-26T01:06:23;100177.03;;;0.87;100.00
66560;BME280;53413;49.878;8.142;2023-04-26T01:08:52;100172.69;;;0.85;100.00
66560;BME280;53413;49.878;8.142;2023-04-26T01:11:19;100174.41;;;0.81;100.00
66560;BME280;53413;49.878;8.142;2023-04-26T01:13:46;100166.66;;;0.76;100.00
66560;BME280;53413;49.878;8.142;2023-04-26T01:16:12;100172.69;;;0.77;100.00
66560;BME280;53413;49.878;8.142;2023-04-26T01:18:39;100170.09;;;0.79;100.00
66560;BME280;53413;49.878;8.142;2023-04-26T01:21:05;100173.53;;;0.77;100.00
66560;BME280;53413;49.878;8.142;2023-04-26T01:23:30;100172.69;;;0.79;100.00
66560;BME280;53413;49.878;8.142;2023-04-26T01:25:56;100170.97;;;0.82;100.00
66560;BME280;53413;49.878;8.142;2023-04-26T01:28:21;100176.13;;;0.79;100.00
66560;BME280;53413;49.878;8.142;2023-04-26T01:30:47;100172.69;;;0.77;100.00
66560;BME280;53413;49.878;8.142;2023-04-26T01:33:12;100172.69;;;0.79;100.00
66560;BME280;53413;49.878;8.142;2023-04-26T01:35:40;100171.81;;;0.76;100.00
66560;BME280;53413;49.878;8.142;2023-04-26T01:38:05;100169.22;;;0.76;100.00
66560;BME280;53413;49.878;8.142;2023-04-26T01:40:30;100168.38;;;0.76;100.00
66560;BME280;53413;49.878;8.142;2023-04-26T01:42:56;100167.53;;;0.79;100.00
66560;BME280;53413;49.878;8.142;2023-04-26T01:45:21;100172.69;;;0.77;100.00
66560;BME280;53413;49.878;8.142;2023-04-26T01:47:46;100169.22;;;0.73;100.00
66560;BME280;53413;49.878;8.142;2023-04-26T01:50:12;100167.47;;;0.68;100.00
66560;BME280;53413;49.878;8.142;2023-04-26T01:52:37;100164.88;;;0.63;100.00
66560;BME280;53413;49.878;8.142;2023-04-26T01:55:03;100170.88;;;0.59;100.00
66560;BME280;53413;49.878;8.142;2023-04-26T01:57:28;100170.00;;;0.52;100.00
66560;BME280;53413;49.878;8.142;2023-04-26T01:59:53;100170.78;;;0.45;100.00
66560;BME280;53413;49.878;8.142;2023-04-26T02:02:20;100177.63;;;0.38;100.00
66560;BME280;53413;49.878;8.142;2023-04-26T02:04:46;100175.91;;;0.36;100.00
66560;BME280;53413;49.878;8.142;2023-04-26T02:07:11;100182.78;;;0.35;100.00
66560;BME280;53413;49.878;8.142;2023-04-26T02:09:36;100181.91;;;0.36;100.00
66560;BME280;53413;49.878;8.142;2023-04-26T02:12:02;100181.94;;;0.38;100.00
66560;BME280;53413;49.878;8.142;2023-04-26T02:14:27;100171.63;;;0.38;100.00
66560;BME280;53413;49.878;8.142;2023-04-26T02:16:52;100166.44;;;0.35;100.00
66560;BME280;53413;49.878;8.142;2023-04-26T02:19:18;100169.84;;;0.30;100.00
66560;BME280;53413;49.878;8.142;2023-04-26T02:21:56;100176.69;;;0.25;100.00
66560;BME280;53413;49.878;8.142;2023-04-26T02:24:25;100174.97;;;0.24;100.00
66560;BME280;53413;49.878;8.142;2023-04-26T02:26:50;100166.41;;;0.24;100.00
66560;BME280;53413;49.878;8.142;2023-04-26T02:29:19;100172.38;;;0.20;100.00
66560;BME280;53413;49.878;8.142;2023-04-26T02:31:44;100172.34;;;0.15;100.00
66560;BME280;53413;49.878;8.142;2023-04-26T02:34:11;100179.19;;;0.11;100.00
66560;BME280;53413;49.878;8.142;2023-04-26T02:36:36;100171.41;;;0.05;100.00
66560;BME280;53413;49.878;8.142;2023-04-26T02:39:01;100162.78;;;0.02;100.00
66560;BME280;53413;49.878;8.142;2023-04-26T02:41:27;100161.91;;;0.01;100.00
66560;BME280;53413;49.878;8.142;2023-04-26T02:43:55;100160.19;;;-0.03;100.00
66560;BME280;53413;49.878;8.142;2023-04-26T02:46:20;100167.00;;;-0.08;100.00
66560;BME280;53413;49.878;8.142;2023-04-26T02:48:45;100167.84;;;-0.09;100.00
66560;BME280;53413;49.878;8.142;2023-04-26T02:51:11;100163.53;;;-0.13;100.00
66560;BME280;53413;49.878;8.142;2023-04-26T02:53:36;100170.44;;;-0.11;100.00
66560;BME280;53413;49.878;8.142;2023-04-26T02:56:01;100168.69;;;-0.12;100.00
66560;BME280;53413;49.878;8.142;2023-04-26T02:58:27;100169.53;;;-0.13;100.00
66560;BME280;53413;49.878;8.142;2023-04-26T03:00:53;100165.25;;;-0.14;100.00
66560;BME280;53413;49.878;8.142;2023-04-26T03:03:19;100165.25;;;-0.16;100.00
66560;BME280;53413;49.878;8.142;2023-04-26T03:05:45;100166.97;;;-0.14;100.00
66560;BME280;53413;49.878;8.142;2023-04-26T03:08:10;100173.81;;;-0.18;100.00
66560;BME280;53413;49.878;8.142;2023-04-26T03:10:36;100172.06;;;-0.21;100.00
66560;BME280;53413;49.878;8.142;2023-04-26T03:13:01;100167.81;;;-0.14;100.00
66560;BME280;53413;49.878;8.142;2023-04-26T03:15:27;100166.94;;;-0.19;100.00
66560;BME280;53413;49.878;8.142;2023-04-26T03:17:53;100171.22;;;-0.21;100.00
66560;BME280;53413;49.878;8.142;2023-04-26T03:20:18;100167.75;;;-0.25;100.00
66560;BME280;53413;49.878;8.142;2023-04-26T03:22:45;100169.41;;;-0.28;100.00
66560;BME280;53413;49.878;8.142;2023-04-26T03:25:10;100163.38;;;-0.32;100.00
66560;BME280;53413;49.878;8.142;2023-04-26T03:27:35;100164.25;;;-0.32;100.00
66560;BME280;53413;49.878;8.142;2023-04-26T03:30:01;100173.72;;;-0.29;100.00
66560;BME280;53413;49.878;8.142;2023-04-26T03:32:28;100167.69;;;-0.29;100.00
66560;BME280;53413;49.878;8.142;2023-04-26T03:34:53;100171.94;;;-0.35;100.00
66560;BME280;53413;49.878;8.142;2023-04-26T03:37:19;100164.16;;;-0.44;100.00
66560;BME280;53413;49.878;8.142;2023-04-26T03:39:44;100171.81;;;-0.49;100.00
66560;BME280;53413;49.878;8.142;2023-04-26T03:42:09;100165.81;;;-0.49;100.00
66560;BME280;53413;49.878;8.142;2023-04-26T03:44:35;100167.53;;;-0.47;100.00
66560;BME280;53413;49.878;8.142;2023-04-26T03:47:00;100166.59;;;-0.53;100.00
66560;BME280;53413;49.878;8.142;2023-04-26T03:49:25;100158.84;;;-0.59;100.00
66560;BME280;53413;49.878;8.142;2023-04-26T03:51:50;100158.81;;;-0.63;100.00
66560;BME280;53413;49.878;8.142;2023-04-26T03:54:16;100169.97;;;-0.60;100.00
66560;BME280;53413;49.878;8.142;2023-04-26T03:56:41;100158.81;;;-0.63;100.00
66560;BME280;53413;49.878;8.142;2023-04-26T03:59:07;100157.06;;;-0.64;100.00
66560;BME280;53413;49.878;8.142;2023-04-26T04:01:34;100156.19;;;-0.67;100.00
66560;BME280;53413;49.878;8.142;2023-04-26T04:03:59;100156.19;;;-0.69;100.00
66560;BME280;53413;49.878;8.142;2023-04-26T04:06:24;100155.31;;;-0.71;100.00
66560;BME280;53413;49.878;8.142;2023-04-26T04:08:50;100154.47;;;-0.68;100.00
66560;BME280;53413;49.878;8.142;2023-04-26T04:11:15;100163.94;;;-0.63;100.00
66560;BME280;53413;49.878;8.142;2023-04-26T04:13:40;100160.56;;;-0.58;100.00
66560;BME280;53413;49.878;8.142;2023-04-26T04:16:06;100164.91;;;-0.54;100.00
66560;BME280;53413;49.878;8.142;2023-04-26T04:18:34;100158.06;;;-0.49;100.00
66560;BME280;53413;49.878;8.142;2023-04-26T04:20:59;100163.25;;;-0.44;100.00
66560;BME280;53413;49.878;8.142;2023-04-26T04:23:24;100158.16;;;-0.41;100.00
66560;BME280;53413;49.878;8.142;2023-04-26T04:25:51;100160.72;;;-0.40;100.00
66560;BME280;53413;49.878;8.142;2023-04-26T04:28:16;100167.66;;;-0.36;100.00
66560;BME280;53413;49.878;8.142;2023-04-26T04:30:42;100164.22;;;-0.35;100.00
66560;BME280;53413;49.878;8.142;2023-04-26T04:33:11;100172.81;;;-0.33;100.00
66560;BME280;53413;49.878;8.142;2023-04-26T04:35:36;100172.03;;;-0.24;100.00
66560;BME280;53413;49.878;8.142;2023-04-26T04:38:02;100173.84;;;-0.13;100.00
66560;BME280;53413;49.878;8.142;2023-04-26T04:40:28;100179.03;;;-0.09;100.00
66560;BME280;53413;49.878;8.142;2023-04-26T04:42:54;100185.09;;;-0.01;100.00
66560;BME280;53413;49.878;8.142;2023-04-26T04:45:20;100180.84;;;0.05;100.00
66560;BME280;53413;49.878;8.142;2023-04-26T04:47:45;100191.19;;;0.11;100.00
66560;BME280;53413;49.878;8.142;2023-04-26T04:50:11;100195.56;;;0.20;100.00
66560;BME280;53413;49.878;8.142;2023-04-26T04:52:36;100205.09;;;0.28;100.00
66560;BME280;53413;49.878;8.142;2023-04-26T04:55:02;100199.09;;;0.36;100.00
66560;BME280;53413;49.878;8.142;2023-04-26T04:57:29;100200.03;;;0.45;100.00
66560;BME280;53413;49.878;8.142;2023-04-26T04:59:55;100203.50;;;0.55;100.00
66560;BME280;53413;49.878;8.142;2023-04-26T05:02:21;100196.69;;;0.65;100.00
66560;BME280;53413;49.878;8.142;2023-04-26T05:04:46;100194.19;;;0.76;100.00
66560;BME280;53413;49.878;8.142;2023-04-26T05:07:12;100208.00;;;0.87;100.00
66560;BME280;53413;49.878;8.142;2023-04-26T05:09:40;100210.63;;;1.01;100.00
66560;BME280;53413;49.878;8.142;2023-04-26T05:12:05;100208.09;;;1.15;100.00
66560;BME280;53413;49.878;8.142;2023-04-26T05:14:31;100215.03;;;1.27;100.00
66560;BME280;53413;49.878;8.142;2023-04-26T05:16:56;100209.03;;;1.41;100.00
66560;BME280;53413;49.878;8.142;2023-04-26T05:19:21;100204.75;;;1.53;100.00
66560;BME280;53413;49.878;8.142;2023-04-26T05:21:47;100209.06;;;1.67;100.00
66560;BME280;53413;49.878;8.142;2023-04-26T05:24:12;100208.25;;;1.80;100.00
66560;BME280;53413;49.878;8.142;2023-04-26T05:26:37;100209.09;;;1.96;100.00
66560;BME280;53413;49.878;8.142;2023-04-26T05:29:03;100205.66;;;2.11;100.00
66560;BME280;53413;49.878;8.142;2023-04-26T05:31:28;100214.25;;;2.26;100.00
66560;BME280;53413;49.878;8.142;2023-04-26T05:33:54;100209.94;;;2.40;100.00
66560;BME280;53413;49.878;8.142;2023-04-26T05:36:19;100209.03;;;2.55;100.00
66560;BME280;53413;49.878;8.142;2023-04-26T05:38:45;100208.16;;;2.69;100.00
66560;BME280;53413;49.878;8.142;2023-04-26T05:41:10;100208.97;;;2.85;100.00
66560;BME280;53413;49.878;8.142;2023-04-26T05:43:36;100208.03;;;3.03;100.00
66560;BME280;53413;49.878;8.142;2023-04-26T05:46:02;100203.66;;;3.19;100.00
66560;BME280;53413;49.878;8.142;2023-04-26T05:48:27;100210.50;;;3.34;100.00
66560;BME280;53413;49.878;8.142;2023-04-26T05:50:54;100213.88;;;3.47;100.00
66560;BME280;53413;49.878;8.142;2023-04-26T05:53:20;100211.13;;;3.68;100.00
66560;BME280;53413;49.878;8.142;2023-04-26T05:55:46;100214.44;;;3.91;100.00
66560;BME280;53413;49.878;8.142;2023-04-26T05:58:12;100221.25;;;4.06;100.00
66560;BME280;53413;49.878;8.142;2023-04-26T06:00:37;100219.31;;;4.31;100.00
66560;BME280;53413;49.878;8.142;2023-04-26T06:03:03;100226.75;;;4.67;100.00
66560;BME280;53413;49.878;8.142;2023-04-26T06:05:32;100221.69;;;6.45;100.00
66560;BME280;53413;49.878;8.142;2023-04-26T06:07:58;100209.09;;;12.43;100.00
66560;BME280;53413;49.878;8.142;2023-04-26T06:10:24;100213.78;;;16.99;64.54
66560;BME280;53413;49.878;8.142;2023-04-26T06:12:49;100213.78;;;16.99;64.54
66560;BME280;53413;49.878;8.142;2023-04-26T06:15:15;100213.78;;;16.99;64.54
66560;BME280;53413;49.878;8.142;2023-04-26T06:17:40;100201.09;;;24.52;39.03
66560;BME280;53413;49.878;8.142;2023-04-26T06:20:07;100195.78;;;26.10;37.92
66560;BME280;53413;49.878;8.142;2023-04-26T06:22:34;100200.88;;;26.39;35.49
66560;BME280;53413;49.878;8.142;2023-04-26T06:24:59;100208.38;;;25.63;36.52
66560;BME280;53413;49.878;8.142;2023-04-26T06:27:25;100215.41;;;26.10;35.84
66560;BME280;53413;49.878;8.142;2023-04-26T06:29:50;100201.13;;;28.33;33.06
66560;BME280;53413;49.878;8.142;2023-04-26T06:32:16;100211.13;;;29.68;30.43
66560;BME280;53413;49.878;8.142;2023-04-26T06:34:42;100200.91;;;30.25;28.53
66560;BME280;53413;49.878;8.142;2023-04-26T06:37:09;100194.72;;;31.51;28.12
66560;BME280;53413;49.878;8.142;2023-04-26T06:39:35;100196.47;;;32.52;25.94
66560;BME280;53413;49.878;8.142;2023-04-26T06:42:02;100194.03;;;32.29;25.76
66560;BME280;53413;49.878;8.142;2023-04-26T06:44:28;100194.47;;;33.65;24.87
66560;BME280;53413;49.878;8.142;2023-04-26T06:46:53;100190.13;;;34.31;24.54
66560;BME280;53413;49.878;8.142;2023-04-26T06:49:19;100182.75;;;34.65;23.53
66560;BME280;53413;49.878;8.142;2023-04-26T06:51:45;100183.59;;;33.65;24.01
66560;BME280;53413;49.878;8.142;2023-04-26T06:54:11;100181.06;;;32.60;24.56
66560;BME280;53413;49.878;8.142;2023-04-26T06:56:36;100184.94;;;32.44;24.35
66560;BME280;53413;49.878;8.142;2023-04-26T06:59:04;100184.78;;;31.37;24.40
66560;BME280;53413;49.878;8.142;2023-04-26T07:01:30;100197.28;;;30.33;25.52
66560;BME280;53413;49.878;8.142;2023-04-26T07:04:02;100192.28;;;29.60;26.11
66560;BME280;53413;49.878;8.142;2023-04-26T07:06:28;100192.53;;;29.10;26.16
66560;BME280;53413;49.878;8.142;2023-04-26T07:08:54;100193.81;;;29.77;26.07
66560;BME280;53413;49.878;8.142;2023-04-26T07:11:20;100186.94;;;31.26;25.06
66560;BME280;53413;49.878;8.142;2023-04-26T07:13:46;100185.38;;;33.31;23.67
66560;BME280;53413;49.878;8.142;2023-04-26T07:16:11;100189.50;;;34.09;22.76
66560;BME280;53413;49.878;8.142;2023-04-26T07:18:38;100184.72;;;33.22;22.99
66560;BME280;53413;49.878;8.142;2023-04-26T07:21:04;100186.63;;;31.73;24.25
66560;BME280;53413;49.878;8.142;2023-04-26T07:23:29;100182.06;;;31.58;23.97
66560;BME280;53413;49.878;8.142;2023-04-26T07:25:55;100182.13;;;31.43;24.12
66560;BME280;53413;49.878;8.142;2023-04-26T07:28:20;100194.22;;;29.74;25.18
66560;BME280;53413;49.878;8.142;2023-04-26T07:30:46;100187.47;;;29.93;25.47
66560;BME280;53413;49.878;8.142;2023-04-26T07:33:11;100176.88;;;30.30;24.56
66560;BME280;53413;49.878;8.142;2023-04-26T07:35:37;100173.00;;;30.78;24.13
66560;BME280;53413;49.878;8.142;2023-04-26T07:38:02;100175.03;;;31.64;23.74
66560;BME280;53413;49.878;8.142;2023-04-26T07:40:28;100175.41;;;31.76;23.75
66560;BME280;53413;49.878;8.142;2023-04-26T07:42:54;100187.16;;;32.12;22.45
66560;BME280;53413;49.878;8.142;2023-04-26T07:45:20;100181.47;;;32.00;23.02
66560;BME280;53413;49.878;8.142;2023-04-26T07:47:46;100180.72;;;33.11;22.00
66560;BME280;53413;49.878;8.142;2023-04-26T07:50:11;100180.00;;;33.38;21.47
66560;BME280;53413;49.878;8.142;2023-04-26T07:52:37;100178.06;;;33.25;21.75
66560;BME280;53413;49.878;8.142;2023-04-26T07:55:03;100175.88;;;34.36;21.01
66560;BME280;53413;49.878;8.142;2023-04-26T07:57:28;100166.75;;;34.96;20.26
66560;BME280;53413;49.878;8.142;2023-04-26T07:59:54;100178.53;;;35.67;19.48
66560;BME280;53413;49.878;8.142;2023-04-26T08:02:19;100171.41;;;36.79;19.33
66560;BME280;53413;49.878;8.142;2023-04-26T08:04:49;100172.94;;;35.87;18.88
66560;BME280;53413;49.878;8.142;2023-04-26T08:07:17;100174.16;;;35.27;19.88
66560;BME280;53413;49.878;8.142;2023-04-26T08:09:42;100174.75;;;34.71;20.23
66560;BME280;53413;49.878;8.142;2023-04-26T08:12:08;100175.06;;;35.53;19.22
66560;BME280;53413;49.878;8.142;2023-04-26T08:14:34;100175.47;;;36.33;18.42
66560;BME280;53413;49.878;8.142;2023-04-26T08:16:59;100170.22;;;36.94;17.87
66560;BME280;53413;49.878;8.142;2023-04-26T08:19:26;100165.25;;;37.52;17.16
66560;BME280;53413;49.878;8.142;2023-04-26T08:21:55;100171.44;;;39.02;16.89
66560;BME280;53413;49.878;8.142;2023-04-26T08:24:20;100170.59;;;40.10;16.29
66560;BME280;53413;49.878;8.142;2023-04-26T08:26:45;100162.78;;;40.81;16.34
66560;BME280;53413;49.878;8.142;2023-04-26T08:29:11;100166.56;;;39.67;16.45
66560;BME280;53413;49.878;8.142;2023-04-26T08:31:36;100170.75;;;37.03;17.13
66560;BME280;53413;49.878;8.142;2023-04-26T08:34:01;100168.97;;;33.80;19.41
66560;BME280;53413;49.878;8.142;2023-04-26T08:36:27;100169.56;;;32.58;19.80
66560;BME280;53413;49.878;8.142;2023-04-26T08:38:52;100162.34;;;31.65;20.57
66560;BME280;53413;49.878;8.142;2023-04-26T08:41:21;100157.13;;;30.45;21.72
66560;BME280;53413;49.878;8.142;2023-04-26T08:43:48;100165.53;;;29.10;22.64
66560;BME280;53413;49.878;8.142;2023-04-26T08:46:14;100169.97;;;28.05;23.77
66560;BME280;53413;49.878;8.142;2023-04-26T08:48:42;100171.19;;;27.18;24.55
66560;BME280;53413;49.878;8.142;2023-04-26T08:51:08;100167.47;;;27.79;24.03
66560;BME280;53413;49.878;8.142;2023-04-26T08:53:37;100160.97;;;29.51;22.99
66560;BME280;53413;49.878;8.142;2023-04-26T08:56:03;100151.41;;;30.99;21.56
66560;BME280;53413;49.878;8.142;2023-04-26T08:58:30;100152.94;;;33.09;20.44
66560;BME280;53413;49.878;8.142;2023-04-26T09:00:57;100163.41;;;31.85;21.20
66560;BME280;53413;49.878;8.142;2023-04-26T09:03:24;100166.00;;;29.22;22.92
66560;BME280;53413;49.878;8.142;2023-04-26T09:05:51;100155.25;;;26.82;24.65
66560;BME280;53413;49.878;8.142;2023-04-26T09:08:17;100168.06;;;25.27;26.36
66560;BME280;53413;49.878;8.142;2023-04-26T09:10:44;100173.13;;;24.27;26.72
66560;BME280;53413;49.878;8.142;2023-04-26T09:13:09;100172.78;;;23.42;27.74
66560;BME280;53413;49.878;8.142;2023-04-26T09:15:35;100177.31;;;22.69;28.98
66560;BME280;53413;49.878;8.142;2023-04-26T09:20:43;100158.69;;;24.38;27.47
66560;BME280;53413;49.878;8.142;2023-04-26T09:23:08;100156.34;;;26.71;25.61
66560;BME280;53413;49.878;8.142;2023-04-26T09:25:34;100151.19;;;28.70;23.78
66560;BME280;53413;49.878;8.142;2023-04-26T09:28:01;100149.44;;;28.94;23.39
66560;BME280;53413;49.878;8.142;2023-04-26T09:30:28;100145.84;;;29.33;22.82
66560;BME280;53413;49.878;8.142;2023-04-26T09:32:59;100152.44;;;28.99;23.42
66560;BME280;53413;49.878;8.142;2023-04-26T09:40:29;100136.63;;;25.65;25.95
66560;BME280;53413;49.878;8.142;2023-04-26T09:42:59;100145.63;;;24.82;26.51
66560;BME280;53413;49.878;8.142;2023-04-26T09:45:26;100144.25;;;23.62;27.95
66560;BME280;53413;49.878;8.142;2023-04-26T09:47:51;100146.63;;;22.95;29.05
66560;BME280;53413;49.878;8.142;2023-04-26T09:50:30;100144.75;;;22.85;29.51
66560;BME280;53413;49.878;8.142;2023-04-26T09:52:56;100153.25;;;22.59;29.59
66560;BME280;53413;49.878;8.142;2023-04-26T09:55:26;100148.97;;;22.26;30.35
66560;BME280;53413;49.878;8.142;2023-04-26T09:57:53;100144.38;;;22.59;29.39
66560;BME280;53413;49.878;8.142;2023-04-26T10:00:18;100143.72;;;22.67;28.77
66560;BME280;53413;49.878;8.142;2023-04-26T10:02:45;100143.63;;;22.26;28.83
66560;BME280;53413;49.878;8.142;2023-04-26T10:05:11;100149.13;;;21.71;30.30
66560;BME280;53413;49.878;8.142;2023-04-26T10:07:37;100147.41;;;21.14;30.25
66560;BME280;53413;49.878;8.142;2023-04-26T10:10:03;100147.66;;;20.66;31.04
66560;BME280;53413;49.878;8.142;2023-04-26T10:12:29;100151.50;;;20.39;30.78
66560;BME280;53413;49.878;8.142;2023-04-26T10:14:55;100141.09;;;20.24;31.84
66560;BME280;53413;49.878;8.142;2023-04-26T10:17:21;100149.28;;;20.10;32.50
66560;BME280;53413;49.878;8.142;2023-04-26T10:19:49;100152.84;;;19.86;32.49
66560;BME280;53413;49.878;8.142;2023-04-26T10:22:22;100153.16;;;19.57;32.90
66560;BME280;53413;49.878;8.142;2023-04-26T10:24:48;100146.44;;;19.64;32.70
66560;BME280;53413;49.878;8.142;2023-04-26T10:27:14;100146.84;;;19.71;32.49
66560;BME280;53413;49.878;8.142;2023-04-26T10:32:18;100152.94;;;19.84;32.07
66560;BME280;53413;49.878;8.142;2023-04-26T10:34:44;100149.38;;;19.73;32.03
66560;BME280;53413;49.878;8.142;2023-04-26T10:37:29;100147.72;;;19.34;33.44
66560;BME280;53413;49.878;8.142;2023-04-26T10:40:30;100143.16;;;18.99;33.88
66560;BME280;53413;49.878;8.142;2023-04-26T10:45:43;100122.19;;;19.07;34.26
66560;BME280;53413;49.878;8.142;2023-04-26T10:48:29;100126.56;;;19.08;34.31
66560;BME280;53413;49.878;8.142;2023-04-26T10:53:23;100107.97;;;19.57;33.37
66560;BME280;53413;49.878;8.142;2023-04-26T10:55:48;100100.13;;;19.91;33.33
66560;BME280;53413;49.878;8.142;2023-04-26T10:58:30;100105.16;;;19.83;34.14
66560;BME280;53413;49.878;8.142;2023-04-26T11:01:17;100110.88;;;19.54;33.85
66560;BME280;53413;49.878;8.142;2023-04-26T11:04:06;100110.03;;;19.29;33.46
66560;BME280;53413;49.878;8.142;2023-04-26T11:06:51;100111.19;;;18.88;33.45
66560;BME280;53413;49.878;8.142;2023-04-26T11:12:05;100106.19;;;18.33;34.01
66560;BME280;53413;49.878;8.142;2023-04-26T11:14:34;100106.16;;;18.20;35.05
66560;BME280;53413;49.878;8.142;2023-04-26T11:17:03;100095.56;;;18.07;34.55
66560;BME280;53413;49.878;8.142;2023-04-26T11:19:30;100097.69;;;17.88;35.58
66560;BME280;53413;49.878;8.142;2023-04-26T11:21:56;100090.00;;;18.10;35.10
66560;BME280;53413;49.878;8.142;2023-04-26T11:24:32;100095.34;;;18.49;34.48
66560;BME280;53413;49.878;8.142;2023-04-26T11:26:58;100087.25;;;18.25;35.48
66560;BME280;53413;49.878;8.142;2023-04-26T11:29:24;100086.00;;;18.18;35.23
66560;BME280;53413;49.878;8.142;2023-04-26T11:31:53;100090.00;;;18.75;35.04
66560;BME280;53413;49.878;8.142;2023-04-26T11:34:30;100092.72;;;18.86;34.77
66560;BME280;53413;49.878;8.142;2023-04-26T11:37:03;100088.84;;;18.53;34.52
66560;BME280;53413;49.878;8.142;2023-04-26T11:39:32;100092.16;;;18.57;34.50
66560;BME280;53413;49.878;8.142;2023-04-26T11:42:09;100089.09;;;19.00;34.04
66560;BME280;53413;49.878;8.142;2023-04-26T11:44:36;100080.41;;;18.72;33.85
66560;BME280;53413;49.878;8.142;2023-04-26T11:47:06;100072.75;;;18.94;34.03
66560;BME280;53413;49.878;8.142;2023-04-26T11:49:32;100065.84;;;19.28;33.62
66560;BME280;53413;49.878;8.142;2023-04-26T11:51:58;100067.16;;;19.10;34.22
66560;BME280;53413;49.878;8.142;2023-04-26T11:54:34;100068.97;;;18.59;35.16
66560;BME280;53413;49.878;8.142;2023-04-26T11:57:00;100071.16;;;18.15;35.19
66560;BME280;53413;49.878;8.142;2023-04-26T11:59:36;100063.13;;;17.63;35.98
66560;BME280;53413;49.878;8.142;2023-04-26T12:02:05;100069.19;;;17.38;37.01
66560;BME280;53413;49.878;8.142;2023-04-26T12:04:31;100070.63;;;17.57;37.22
66560;BME280;53413;49.878;8.142;2023-04-26T12:06:57;100063.88;;;17.78;35.99
66560;BME280;53413;49.878;8.142;2023-04-26T12:09:26;100066.16;;;18.10;35.64
66560;BME280;53413;49.878;8.142;2023-04-26T12:11:59;100063.91;;;18.56;34.92
66560;BME280;53413;49.878;8.142;2023-04-26T12:14:36;100057.47;;;18.71;34.82
66560;BME280;53413;49.878;8.142;2023-04-26T12:17:03;100051.22;;;19.10;35.01
66560;BME280;53413;49.878;8.142;2023-04-26T12:19:33;100060.97;;;19.22;34.53
66560;BME280;53413;49.878;8.142;2023-04-26T12:21:59;100057.56;;;18.96;34.43
66560;BME280;53413;49.878;8.142;2023-04-26T12:24:26;100056.19;;;18.90;34.68
66560;BME280;53413;49.878;8.142;2023-04-26T12:26:58;100054.81;;;18.71;34.53
66560;BME280;53413;49.878;8.142;2023-04-26T12:29:24;100065.97;;;18.76;34.40
66560;BME280;53413;49.878;8.142;2023-04-26T12:31:50;100060.28;;;19.07;33.84
66560;BME280;53413;49.878;8.142;2023-04-26T12:34:15;100063.06;;;19.30;33.36
66560;BME280;53413;49.878;8.142;2023-04-26T12:36:41;100061.00;;;19.33;32.60
66560;BME280;53413;49.878;8.142;2023-04-26T12:39:12;100060.91;;;19.71;32.01
66560;BME280;53413;49.878;8.142;2023-04-26T12:41:43;100061.13;;;19.67;32.21
66560;BME280;53413;49.878;8.142;2023-04-26T12:44:10;100055.81;;;20.14;32.38
66560;BME280;53413;49.878;8.142;2023-04-26T12:46:36;100058.34;;;20.27;32.90
66560;BME280;53413;49.878;8.142;2023-04-26T12:49:02;100051.25;;;20.39;31.23
66560;BME280;53413;49.878;8.142;2023-04-26T12:51:28;100047.00;;;20.59;30.87
66560;BME280;53413;49.878;8.142;2023-04-26T12:53:54;100057.66;;;20.37;30.37
66560;BME280;53413;49.878;8.142;2023-04-26T12:56:19;100048.94;;;20.46;31.33
66560;BME280;53413;49.878;8.142;2023-04-26T12:58:44;100048.69;;;20.60;31.69
66560;BME280;53413;49.878;8.142;2023-04-26T13:01:12;100051.47;;;20.36;31.42
66560;BME280;53413;49.878;8.142;2023-04-26T13:03:38;100050.47;;;19.92;31.95